sensor_id;sensor_type;location;lat;lon;timestamp;P1;durP1;ratioP1;P2;durP2;ratioP2
20697;SDS011;10508;50.956;4.640;2023-10-31T00:01:48;16.40;;;8.20;;
20697;SDS011;10508;50.956;4.640;2023-10-31T00:04:14;19.83;;;9.13;;
20697;SDS011;10508;50.956;4.640;2023-10-31T00:06:40;19.33;;;9.55;;
20697;SDS011;10508;50.956;4.640;2023-10-31T00:09:06;20.00;;;8.98;;
20697;SDS011;10508;50.956;4.640;2023-10-31T00:11:32;19.75;;;9.60;;
20697;SDS011;10508;50.956;4.640;2023-10-31T00:13:57;21.45;;;10.20;;
20697;SDS011;10508;50.956;4.640;2023-10-31T00:16:23;17.83;;;9.43;;
20697;SDS011;10508;50.956;4.640;2023-10-31T00:18:49;20.60;;;9.82;;
20697;SDS011;10508;50.956;4.640;2023-10-31T00:21:14;21.55;;;10.35;;
20697;SDS011;10508;50.956;4.640;2023-10-31T00:23:44;20.33;;;10.07;;
20697;SDS011;10508;50.956;4.640;2023-10-31T00:26:10;22.40;;;11.07;;
20697;SDS011;10508;50.956;4.640;2023-10-31T00:28:36;17.20;;;9.07;;
20697;SDS011;10508;50.956;4.640;2023-10-31T00:31:01;18.50;;;8.93;;
20697;SDS011;10508;50.956;4.640;2023-10-31T00:33:29;17.40;;;8.98;;
20697;SDS011;10508;50.956;4.640;2023-10-31T00:35:55;20.27;;;9.00;;
20697;SDS011;10508;50.956;4.640;2023-10-31T00:38:21;19.77;;;9.00;;
20697;SDS011;10508;50.956;4.640;2023-10-31T00:40:46;17.55;;;8.23;;
20697;SDS011;10508;50.956;4.640;2023-10-31T00:43:12;19.55;;;9.10;;
20697;SDS011;10508;50.956;4.640;2023-10-31T00:45:38;18.25;;;8.55;;
20697;SDS011;10508;50.956;4.640;2023-10-31T00:48:03;16.17;;;8.02;;
20697;SDS011;10508;50.956;4.640;2023-10-31T00:50:29;17.23;;;8.05;;
20697;SDS011;10508;50.956;4.640;2023-10-31T00:52:55;16.42;;;8.68;;
20697;SDS011;10508;50.956;4.640;2023-10-31T00:55:20;14.43;;;7.88;;
20697;SDS011;10508;50.956;4.640;2023-10-31T00:57:46;16.45;;;7.70;;
20697;SDS011;10508;50.956;4.640;2023-10-31T01:00:12;21.80;;;7.75;;
20697;SDS011;10508;50.956;4.640;2023-10-31T01:02:38;15.30;;;7.55;;
20697;SDS011;10508;50.956;4.640;2023-10-31T01:05:04;17.83;;;7.93;;
20697;SDS011;10508;50.956;4.640;2023-10-31T01:07:30;13.52;;;7.20;;
20697;SDS011;10508;50.956;4.640;2023-10-31T01:09:56;16.63;;;7.28;;
20697;SDS011;10508;50.956;4.640;2023-10-31T01:12:21;14.30;;;6.45;;
20697;SDS011;10508;50.956;4.640;2023-10-31T01:14:47;11.63;;;6.05;;
20697;SDS011;10508;50.956;4.640;2023-10-31T01:17:13;14.55;;;6.65;;
20697;SDS011;10508;50.956;4.640;2023-10-31T01:19:38;11.45;;;6.32;;
20697;SDS011;10508;50.956;4.640;2023-10-31T01:22:04;12.63;;;6.40;;
20697;SDS011;10508;50.956;4.640;2023-10-31T01:24:30;10.77;;;6.15;;
20697;SDS011;10508;50.956;4.640;2023-10-31T01:26:55;11.27;;;6.00;;
20697;SDS011;10508;50.956;4.640;2023-10-31T01:29:21;9.25;;;5.45;;
20697;SDS011;10508;50.956;4.640;2023-10-31T01:31:47;8.20;;;5.30;;
20697;SDS011;10508;50.956;4.640;2023-10-31T01:34:12;16.25;;;6.43;;
20697;SDS011;10508;50.956;4.640;2023-10-31T01:36:38;10.25;;;5.50;;
20697;SDS011;10508;50.956;4.640;2023-10-31T01:39:03;12.23;;;6.03;;
20697;SDS011;10508;50.956;4.640;2023-10-31T01:41:29;8.90;;;5.40;;
20697;SDS011;10508;50.956;4.640;2023-10-31T01:43:55;10.40;;;5.28;;
20697;SDS011;10508;50.956;4.640;2023-10-31T01:46:20;11.73;;;5.20;;
20697;SDS011;10508;50.956;4.640;2023-10-31T01:48:46;11.27;;;5.43;;
20697;SDS011;10508;50.956;4.640;2023-10-31T01:51:12;12.02;;;5.20;;
20697;SDS011;10508;50.956;4.640;2023-10-31T01:53:38;12.30;;;5.55;;
20697;SDS011;10508;50.956;4.640;2023-10-31T01:56:05;10.20;;;5.72;;
20697;SDS011;10508;50.956;4.640;2023-10-31T01:58:32;10.77;;;5.50;;
20697;SDS011;10508;50.956;4.640;2023-10-31T02:01:00;8.82;;;5.22;;
20697;SDS011;10508;50.956;4.640;2023-10-31T02:03:29;8.30;;;5.50;;
20697;SDS011;10508;50.956;4.640;2023-10-31T02:05:55;9.52;;;5.57;;
20697;SDS011;10508;50.956;4.640;2023-10-31T02:08:22;9.52;;;5.07;;
20697;SDS011;10508;50.956;4.640;2023-10-31T02:10:49;10.25;;;5.50;;
20697;SDS011;10508;50.956;4.640;2023-10-31T02:13:15;8.63;;;5.38;;
20697;SDS011;10508;50.956;4.640;2023-10-31T02:15:43;13.13;;;6.60;;
20697;SDS011;10508;50.956;4.640;2023-10-31T02:18:09;9.75;;;5.72;;
20697;SDS011;10508;50.956;4.640;2023-10-31T02:20:35;8.38;;;5.03;;
20697;SDS011;10508;50.956;4.640;2023-10-31T02:23:02;11.30;;;5.65;;
20697;SDS011;10508;50.956;4.640;2023-10-31T02:25:28;9.13;;;5.07;;
20697;SDS011;10508;50.956;4.640;2023-10-31T02:27:54;12.20;;;5.60;;
20697;SDS011;10508;50.956;4.640;2023-10-31T02:30:20;11.07;;;5.32;;
20697;SDS011;10508;50.956;4.640;2023-10-31T02:32:46;9.35;;;5.22;;
20697;SDS011;10508;50.956;4.640;2023-10-31T02:35:11;9.73;;;5.50;;
20697;SDS011;10508;50.956;4.640;2023-10-31T02:37:37;7.82;;;4.93;;
20697;SDS011;10508;50.956;4.640;2023-10-31T02:40:03;11.65;;;5.72;;
20697;SDS011;10508;50.956;4.640;2023-10-31T02:42:29;12.93;;;5.05;;
20697;SDS011;10508;50.956;4.640;2023-10-31T02:44:55;8.68;;;5.13;;
20697;SDS011;10508;50.956;4.640;2023-10-31T02:47:24;10.38;;;5.43;;
20697;SDS011;10508;50.956;4.640;2023-10-31T02:49:49;8.65;;;4.88;;
20697;SDS011;10508;50.956;4.640;2023-10-31T02:52:15;10.63;;;5.88;;
20697;SDS011;10508;50.956;4.640;2023-10-31T02:54:41;10.38;;;4.90;;
20697;SDS011;10508;50.956;4.640;2023-10-31T02:57:06;10.00;;;4.82;;
20697;SDS011;10508;50.956;4.640;2023-10-31T02:59:32;9.73;;;4.80;;
20697;SDS011;10508;50.956;4.640;2023-10-31T03:01:58;9.55;;;5.78;;
20697;SDS011;10508;50.956;4.640;2023-10-31T03:04:23;9.68;;;5.45;;
20697;SDS011;10508;50.956;4.640;2023-10-31T03:06:49;7.97;;;5.38;;
20697;SDS011;10508;50.956;4.640;2023-10-31T03:09:15;11.57;;;5.07;;
20697;SDS011;10508;50.956;4.640;2023-10-31T03:11:41;11.43;;;6.00;;
20697;SDS011;10508;50.956;4.640;2023-10-31T03:14:06;13.75;;;6.13;;
20697;SDS011;10508;50.956;4.640;2023-10-31T03:16:32;11.43;;;6.30;;
20697;SDS011;10508;50.956;4.640;2023-10-31T03:18:58;12.88;;;5.95;;
20697;SDS011;10508;50.956;4.640;2023-10-31T03:21:24;7.97;;;5.18;;
20697;SDS011;10508;50.956;4.640;2023-10-31T03:23:50;12.23;;;6.03;;
20697;SDS011;10508;50.956;4.640;2023-10-31T03:26:18;10.63;;;5.22;;
20697;SDS011;10508;50.956;4.640;2023-10-31T03:28:44;11.82;;;5.63;;
20697;SDS011;10508;50.956;4.640;2023-10-31T03:31:11;12.15;;;5.95;;
20697;SDS011;10508;50.956;4.640;2023-10-31T03:33:38;11.23;;;5.15;;
20697;SDS011;10508;50.956;4.640;2023-10-31T03:36:04;9.05;;;5.45;;
20697;SDS011;10508;50.956;4.640;2023-10-31T03:38:33;12.63;;;8.60;;
20697;SDS011;10508;50.956;4.640;2023-10-31T03:41:02;11.77;;;6.13;;
20697;SDS011;10508;50.956;4.640;2023-10-31T03:43:28;10.20;;;6.07;;
20697;SDS011;10508;50.956;4.640;2023-10-31T03:45:54;9.40;;;5.78;;
20697;SDS011;10508;50.956;4.640;2023-10-31T03:48:20;11.40;;;6.35;;
20697;SDS011;10508;50.956;4.640;2023-10-31T03:50:46;11.07;;;6.07;;
20697;SDS011;10508;50.956;4.640;2023-10-31T03:53:12;10.52;;;6.00;;
20697;SDS011;10508;50.956;4.640;2023-10-31T03:55:37;10.95;;;6.47;;
20697;SDS011;10508;50.956;4.640;2023-10-31T03:58:03;9.10;;;6.03;;
20697;SDS011;10508;50.956;4.640;2023-10-31T04:00:30;14.23;;;6.60;;
20697;SDS011;10508;50.956;4.640;2023-10-31T04:02:56;12.00;;;6.53;;
20697;SDS011;10508;50.956;4.640;2023-10-31T04:05:22;10.70;;;6.63;;
20697;SDS011;10508;50.956;4.640;2023-10-31T04:07:48;9.10;;;5.80;;
20697;SDS011;10508;50.956;4.640;2023-10-31T04:10:14;10.07;;;6.32;;
20697;SDS011;10508;50.956;4.640;2023-10-31T04:12:41;9.48;;;6.22;;
20697;SDS011;10508;50.956;4.640;2023-10-31T04:15:07;10.68;;;6.78;;
20697;SDS011;10508;50.956;4.640;2023-10-31T04:17:33;10.23;;;5.70;;
20697;SDS011;10508;50.956;4.640;2023-10-31T04:19:59;9.25;;;5.68;;
20697;SDS011;10508;50.956;4.640;2023-10-31T04:22:25;9.65;;;5.93;;
20697;SDS011;10508;50.956;4.640;2023-10-31T04:24:51;8.70;;;5.60;;
20697;SDS011;10508;50.956;4.640;2023-10-31T04:27:17;8.90;;;5.82;;
20697;SDS011;10508;50.956;4.640;2023-10-31T04:29:42;13.98;;;6.80;;
20697;SDS011;10508;50.956;4.640;2023-10-31T04:32:08;9.68;;;6.22;;
20697;SDS011;10508;50.956;4.640;2023-10-31T04:34:34;11.38;;;6.15;;
20697;SDS011;10508;50.956;4.640;2023-10-31T04:37:00;12.63;;;7.57;;
20697;SDS011;10508;50.956;4.640;2023-10-31T04:39:26;12.38;;;6.25;;
20697;SDS011;10508;50.956;4.640;2023-10-31T04:41:52;14.75;;;6.85;;
20697;SDS011;10508;50.956;4.640;2023-10-31T04:44:18;12.43;;;6.10;;
20697;SDS011;10508;50.956;4.640;2023-10-31T04:46:43;10.98;;;6.65;;
20697;SDS011;10508;50.956;4.640;2023-10-31T04:49:09;12.52;;;6.25;;
20697;SDS011;10508;50.956;4.640;2023-10-31T04:51:35;11.18;;;6.95;;
20697;SDS011;10508;50.956;4.640;2023-10-31T04:54:02;10.45;;;6.22;;
20697;SDS011;10508;50.956;4.640;2023-10-31T04:56:28;11.70;;;6.88;;
20697;SDS011;10508;50.956;4.640;2023-10-31T04:58:54;23.92;;;6.68;;
20697;SDS011;10508;50.956;4.640;2023-10-31T05:01:19;11.50;;;6.68;;
20697;SDS011;10508;50.956;4.640;2023-10-31T05:03:45;13.63;;;7.22;;
20697;SDS011;10508;50.956;4.640;2023-10-31T05:06:26;10.93;;;6.55;;
20697;SDS011;10508;50.956;4.640;2023-10-31T05:09:10;12.63;;;6.78;;
20697;SDS011;10508;50.956;4.640;2023-10-31T05:11:36;17.83;;;7.50;;
20697;SDS011;10508;50.956;4.640;2023-10-31T05:14:02;14.02;;;7.38;;
20697;SDS011;10508;50.956;4.640;2023-10-31T05:16:27;11.73;;;6.68;;
20697;SDS011;10508;50.956;4.640;2023-10-31T05:18:53;16.77;;;8.02;;
20697;SDS011;10508;50.956;4.640;2023-10-31T05:21:19;11.93;;;6.70;;
20697;SDS011;10508;50.956;4.640;2023-10-31T05:23:48;14.63;;;8.27;;
20697;SDS011;10508;50.956;4.640;2023-10-31T05:26:14;12.30;;;7.18;;
20697;SDS011;10508;50.956;4.640;2023-10-31T05:28:40;12.45;;;6.85;;
20697;SDS011;10508;50.956;4.640;2023-10-31T05:31:05;14.15;;;6.95;;
20697;SDS011;10508;50.956;4.640;2023-10-31T05:33:31;15.75;;;7.68;;
20697;SDS011;10508;50.956;4.640;2023-10-31T05:35:56;15.85;;;8.50;;
20697;SDS011;10508;50.956;4.640;2023-10-31T05:38:22;13.18;;;7.88;;
20697;SDS011;10508;50.956;4.640;2023-10-31T05:40:48;14.30;;;7.68;;
20697;SDS011;10508;50.956;4.640;2023-10-31T05:43:13;13.52;;;7.15;;
20697;SDS011;10508;50.956;4.640;2023-10-31T05:45:39;15.40;;;7.68;;
20697;SDS011;10508;50.956;4.640;2023-10-31T05:48:05;18.60;;;7.57;;
20697;SDS011;10508;50.956;4.640;2023-10-31T05:50:30;17.00;;;9.00;;
20697;SDS011;10508;50.956;4.640;2023-10-31T05:52:56;16.33;;;8.95;;
20697;SDS011;10508;50.956;4.640;2023-10-31T05:55:22;17.27;;;8.95;;
20697;SDS011;10508;50.956;4.640;2023-10-31T05:57:47;22.70;;;9.00;;
20697;SDS011;10508;50.956;4.640;2023-10-31T06:00:13;16.38;;;8.88;;
20697;SDS011;10508;50.956;4.640;2023-10-31T06:02:39;21.60;;;9.00;;
20697;SDS011;10508;50.956;4.640;2023-10-31T06:05:05;15.90;;;8.30;;
20697;SDS011;10508;50.956;4.640;2023-10-31T06:07:31;16.73;;;8.80;;
20697;SDS011;10508;50.956;4.640;2023-10-31T06:09:56;16.55;;;8.27;;
20697;SDS011;10508;50.956;4.640;2023-10-31T06:12:22;18.55;;;8.15;;
20697;SDS011;10508;50.956;4.640;2023-10-31T06:14:48;17.85;;;8.35;;
20697;SDS011;10508;50.956;4.640;2023-10-31T06:17:13;16.73;;;8.68;;
20697;SDS011;10508;50.956;4.640;2023-10-31T06:19:39;19.95;;;9.88;;
20697;SDS011;10508;50.956;4.640;2023-10-31T06:22:10;20.15;;;9.20;;
20697;SDS011;10508;50.956;4.640;2023-10-31T06:24:36;14.38;;;8.15;;
20697;SDS011;10508;50.956;4.640;2023-10-31T06:27:02;19.27;;;9.15;;
20697;SDS011;10508;50.956;4.640;2023-10-31T06:29:28;18.65;;;8.90;;
20697;SDS011;10508;50.956;4.640;2023-10-31T06:31:53;13.93;;;7.93;;
20697;SDS011;10508;50.956;4.640;2023-10-31T06:34:19;17.88;;;9.00;;
20697;SDS011;10508;50.956;4.640;2023-10-31T06:36:45;18.05;;;9.32;;
20697;SDS011;10508;50.956;4.640;2023-10-31T06:39:10;17.05;;;7.85;;
20697;SDS011;10508;50.956;4.640;2023-10-31T06:41:36;13.88;;;8.10;;
20697;SDS011;10508;50.956;4.640;2023-10-31T06:44:03;14.88;;;8.32;;
20697;SDS011;10508;50.956;4.640;2023-10-31T06:46:28;14.43;;;7.75;;
20697;SDS011;10508;50.956;4.640;2023-10-31T06:48:54;16.20;;;7.85;;
20697;SDS011;10508;50.956;4.640;2023-10-31T06:51:20;15.52;;;8.23;;
20697;SDS011;10508;50.956;4.640;2023-10-31T06:53:45;19.08;;;8.45;;
20697;SDS011;10508;50.956;4.640;2023-10-31T06:56:11;16.17;;;7.47;;
20697;SDS011;10508;50.956;4.640;2023-10-31T06:58:37;14.55;;;7.85;;
20697;SDS011;10508;50.956;4.640;2023-10-31T07:01:02;13.77;;;6.93;;
20697;SDS011;10508;50.956;4.640;2023-10-31T07:03:28;11.70;;;6.95;;
20697;SDS011;10508;50.956;4.640;2023-10-31T07:05:54;14.10;;;7.68;;
20697;SDS011;10508;50.956;4.640;2023-10-31T07:08:21;13.68;;;7.35;;
20697;SDS011;10508;50.956;4.640;2023-10-31T07:10:48;20.88;;;7.65;;
20697;SDS011;10508;50.956;4.640;2023-10-31T07:13:14;16.02;;;7.07;;
20697;SDS011;10508;50.956;4.640;2023-10-31T07:15:40;13.73;;;7.68;;
20697;SDS011;10508;50.956;4.640;2023-10-31T07:18:06;16.58;;;7.80;;
20697;SDS011;10508;50.956;4.640;2023-10-31T07:20:32;16.10;;;7.05;;
20697;SDS011;10508;50.956;4.640;2023-10-31T07:22:58;15.25;;;7.85;;
20697;SDS011;10508;50.956;4.640;2023-10-31T07:25:24;14.63;;;6.93;;
20697;SDS011;10508;50.956;4.640;2023-10-31T07:27:50;11.15;;;6.78;;
20697;SDS011;10508;50.956;4.640;2023-10-31T07:30:15;13.98;;;6.38;;
20697;SDS011;10508;50.956;4.640;2023-10-31T07:32:41;14.95;;;7.28;;
20697;SDS011;10508;50.956;4.640;2023-10-31T07:35:07;11.63;;;6.47;;
20697;SDS011;10508;50.956;4.640;2023-10-31T07:37:33;14.95;;;6.97;;
20697;SDS011;10508;50.956;4.640;2023-10-31T07:39:58;14.60;;;8.27;;
20697;SDS011;10508;50.956;4.640;2023-10-31T07:42:24;15.43;;;7.78;;
20697;SDS011;10508;50.956;4.640;2023-10-31T07:44:50;13.63;;;6.45;;
20697;SDS011;10508;50.956;4.640;2023-10-31T07:47:16;14.15;;;6.68;;
20697;SDS011;10508;50.956;4.640;2023-10-31T07:49:42;10.75;;;6.03;;
20697;SDS011;10508;50.956;4.640;2023-10-31T07:52:07;11.50;;;5.85;;
20697;SDS011;10508;50.956;4.640;2023-10-31T07:54:52;10.30;;;5.97;;
20697;SDS011;10508;50.956;4.640;2023-10-31T07:57:17;11.57;;;5.82;;
20697;SDS011;10508;50.956;4.640;2023-10-31T07:59:44;13.25;;;5.90;;
20697;SDS011;10508;50.956;4.640;2023-10-31T08:02:10;10.20;;;5.78;;
20697;SDS011;10508;50.956;4.640;2023-10-31T08:04:35;11.25;;;5.32;;
20697;SDS011;10508;50.956;4.640;2023-10-31T08:07:01;8.60;;;5.50;;
20697;SDS011;10508;50.956;4.640;2023-10-31T08:09:27;9.02;;;5.43;;
20697;SDS011;10508;50.956;4.640;2023-10-31T08:11:52;7.53;;;5.22;;
20697;SDS011;10508;50.956;4.640;2023-10-31T08:14:18;9.25;;;5.53;;
20697;SDS011;10508;50.956;4.640;2023-10-31T08:16:44;8.23;;;5.35;;
20697;SDS011;10508;50.956;4.640;2023-10-31T08:19:10;10.73;;;5.32;;
20697;SDS011;10508;50.956;4.640;2023-10-31T08:21:37;9.75;;;4.85;;
20697;SDS011;10508;50.956;4.640;2023-10-31T08:24:03;9.10;;;5.20;;
20697;SDS011;10508;50.956;4.640;2023-10-31T08:26:30;9.13;;;4.68;;
20697;SDS011;10508;50.956;4.640;2023-10-31T08:28:57;11.27;;;5.28;;
20697;SDS011;10508;50.956;4.640;2023-10-31T08:31:23;12.70;;;5.32;;
20697;SDS011;10508;50.956;4.640;2023-10-31T08:33:49;10.27;;;5.00;;
20697;SDS011;10508;50.956;4.640;2023-10-31T08:36:15;8.95;;;4.93;;
20697;SDS011;10508;50.956;4.640;2023-10-31T08:38:42;10.60;;;5.28;;
20697;SDS011;10508;50.956;4.640;2023-10-31T08:41:08;9.38;;;5.13;;
20697;SDS011;10508;50.956;4.640;2023-10-31T08:43:33;9.07;;;4.95;;
20697;SDS011;10508;50.956;4.640;2023-10-31T08:45:59;7.75;;;4.57;;
20697;SDS011;10508;50.956;4.640;2023-10-31T08:48:24;7.05;;;4.65;;
20697;SDS011;10508;50.956;4.640;2023-10-31T08:50:51;6.32;;;4.28;;
20697;SDS011;10508;50.956;4.640;2023-10-31T08:53:16;9.93;;;3.90;;
20697;SDS011;10508;50.956;4.640;2023-10-31T08:55:44;7.03;;;4.13;;
20697;SDS011;10508;50.956;4.640;2023-10-31T08:58:12;8.85;;;4.28;;
20697;SDS011;10508;50.956;4.640;2023-10-31T09:00:38;13.45;;;4.07;;
20697;SDS011;10508;50.956;4.640;2023-10-31T09:03:06;11.70;;;4.05;;
20697;SDS011;10508;50.956;4.640;2023-10-31T09:05:32;6.65;;;3.63;;
20697;SDS011;10508;50.956;4.640;2023-10-31T09:07:57;4.65;;;3.28;;
20697;SDS011;10508;50.956;4.640;2023-10-31T09:10:23;5.22;;;3.50;;
20697;SDS011;10508;50.956;4.640;2023-10-31T09:12:49;7.85;;;3.60;;
20697;SDS011;10508;50.956;4.640;2023-10-31T09:15:17;13.15;;;5.90;;
20697;SDS011;10508;50.956;4.640;2023-10-31T09:17:44;6.88;;;4.18;;
20697;SDS011;10508;50.956;4.640;2023-10-31T09:20:09;11.73;;;3.92;;
20697;SDS011;10508;50.956;4.640;2023-10-31T09:22:36;8.32;;;3.65;;
20697;SDS011;10508;50.956;4.640;2023-10-31T09:25:03;5.68;;;3.38;;
20697;SDS011;10508;50.956;4.640;2023-10-31T09:27:30;5.90;;;3.30;;
20697;SDS011;10508;50.956;4.640;2023-10-31T09:29:56;13.73;;;3.85;;
20697;SDS011;10508;50.956;4.640;2023-10-31T09:32:22;8.13;;;3.25;;
20697;SDS011;10508;50.956;4.640;2023-10-31T09:34:47;4.25;;;3.05;;
20697;SDS011;10508;50.956;4.640;2023-10-31T09:37:14;14.35;;;2.97;;
20697;SDS011;10508;50.956;4.640;2023-10-31T09:39:39;9.13;;;3.80;;
20697;SDS011;10508;50.956;4.640;2023-10-31T09:42:06;7.38;;;2.70;;
20697;SDS011;10508;50.956;4.640;2023-10-31T09:44:32;9.30;;;2.58;;
20697;SDS011;10508;50.956;4.640;2023-10-31T09:46:58;4.25;;;1.90;;
20697;SDS011;10508;50.956;4.640;2023-10-31T09:49:26;5.82;;;2.05;;
20697;SDS011;10508;50.956;4.640;2023-10-31T09:51:53;3.83;;;1.95;;
20697;SDS011;10508;50.956;4.640;2023-10-31T09:54:19;4.30;;;2.42;;
20697;SDS011;10508;50.956;4.640;2023-10-31T09:56:46;3.85;;;1.80;;
20697;SDS011;10508;50.956;4.640;2023-10-31T09:59:13;7.40;;;2.30;;
20697;SDS011;10508;50.956;4.640;2023-10-31T10:01:39;6.35;;;1.67;;
20697;SDS011;10508;50.956;4.640;2023-10-31T10:04:06;8.18;;;1.88;;
20697;SDS011;10508;50.956;4.640;2023-10-31T10:06:31;4.45;;;2.25;;
20697;SDS011;10508;50.956;4.640;2023-10-31T10:08:57;5.35;;;1.95;;
20697;SDS011;10508;50.956;4.640;2023-10-31T10:11:23;2.05;;;1.38;;
20697;SDS011;10508;50.956;4.640;2023-10-31T10:13:51;4.50;;;2.33;;
20697;SDS011;10508;50.956;4.640;2023-10-31T10:16:27;5.18;;;2.35;;
20697;SDS011;10508;50.956;4.640;2023-10-31T10:18:57;9.15;;;1.52;;
20697;SDS011;10508;50.956;4.640;2023-10-31T10:21:49;3.70;;;2.03;;
20697;SDS011;10508;50.956;4.640;2023-10-31T10:24:19;7.88;;;2.17;;
20697;SDS011;10508;50.956;4.640;2023-10-31T10:26:46;9.35;;;1.90;;
20697;SDS011;10508;50.956;4.640;2023-10-31T10:29:12;6.20;;;1.80;;
20697;SDS011;10508;50.956;4.640;2023-10-31T10:31:39;5.18;;;1.73;;
20697;SDS011;10508;50.956;4.640;2023-10-31T10:34:06;3.05;;;1.70;;
20697;SDS011;10508;50.956;4.640;2023-10-31T10:36:32;8.13;;;2.22;;
20697;SDS011;10508;50.956;4.640;2023-10-31T10:38:58;6.70;;;1.95;;
20697;SDS011;10508;50.956;4.640;2023-10-31T10:41:26;8.13;;;2.38;;
20697;SDS011;10508;50.956;4.640;2023-10-31T10:43:58;4.45;;;2.28;;
20697;SDS011;10508;50.956;4.640;2023-10-31T10:46:32;7.80;;;2.97;;
20697;SDS011;10508;50.956;4.640;2023-10-31T10:49:02;9.13;;;2.65;;
20697;SDS011;10508;50.956;4.640;2023-10-31T10:51:35;6.07;;;2.80;;
20697;SDS011;10508;50.956;4.640;2023-10-31T10:54:23;5.18;;;2.45;;
20697;SDS011;10508;50.956;4.640;2023-10-31T11:00:03;9.48;;;2.50;;
20697;SDS011;10508;50.956;4.640;2023-10-31T11:02:31;7.40;;;2.50;;
20697;SDS011;10508;50.956;4.640;2023-10-31T11:04:58;8.05;;;2.38;;
20697;SDS011;10508;50.956;4.640;2023-10-31T11:07:25;6.43;;;2.35;;
20697;SDS011;10508;50.956;4.640;2023-10-31T11:09:55;11.85;;;3.10;;
20697;SDS011;10508;50.956;4.640;2023-10-31T11:12:23;6.07;;;2.40;;
20697;SDS011;10508;50.956;4.640;2023-10-31T11:14:49;5.90;;;2.50;;
20697;SDS011;10508;50.956;4.640;2023-10-31T11:17:26;3.22;;;1.85;;
20697;SDS011;10508;50.956;4.640;2023-10-31T11:19:53;11.57;;;2.90;;
20697;SDS011;10508;50.956;4.640;2023-10-31T11:22:20;31.35;;;15.93;;
20697;SDS011;10508;50.956;4.640;2023-10-31T11:24:48;13.43;;;3.33;;
20697;SDS011;10508;50.956;4.640;2023-10-31T11:27:14;9.13;;;3.40;;
20697;SDS011;10508;50.956;4.640;2023-10-31T11:29:40;6.68;;;2.55;;
20697;SDS011;10508;50.956;4.640;2023-10-31T11:32:09;9.07;;;2.72;;
20697;SDS011;10508;50.956;4.640;2023-10-31T11:34:37;7.65;;;2.63;;
20697;SDS011;10508;50.956;4.640;2023-10-31T11:42:53;11.02;;;2.88;;
20697;SDS011;10508;50.956;4.640;2023-10-31T11:45:25;9.50;;;3.40;;
20697;SDS011;10508;50.956;4.640;2023-10-31T11:48:08;7.53;;;3.40;;
20697;SDS011;10508;50.956;4.640;2023-10-31T11:50:35;6.32;;;2.92;;
20697;SDS011;10508;50.956;4.640;2023-10-31T11:53:09;7.40;;;2.95;;
20697;SDS011;10508;50.956;4.640;2023-10-31T11:55:46;9.05;;;3.05;;
20697;SDS011;10508;50.956;4.640;2023-10-31T11:58:14;7.28;;;3.30;;
20697;SDS011;10508;50.956;4.640;2023-10-31T12:00:42;7.20;;;3.03;;
20697;SDS011;10508;50.956;4.640;2023-10-31T12:03:11;7.07;;;3.10;;
20697;SDS011;10508;50.956;4.640;2023-10-31T12:05:38;8.57;;;3.28;;
20697;SDS011;10508;50.956;4.640;2023-10-31T12:08:04;8.43;;;3.28;;
20697;SDS011;10508;50.956;4.640;2023-10-31T12:10:30;6.60;;;3.40;;
20697;SDS011;10508;50.956;4.640;2023-10-31T12:12:57;7.40;;;2.92;;
20697;SDS011;10508;50.956;4.640;2023-10-31T12:15:26;10.10;;;3.72;;
20697;SDS011;10508;50.956;4.640;2023-10-31T12:17:52;9.82;;;3.78;;
20697;SDS011;10508;50.956;4.640;2023-10-31T12:20:18;8.98;;;4.55;;
20697;SDS011;10508;50.956;4.640;2023-10-31T12:22:44;9.52;;;3.97;;
20697;SDS011;10508;50.956;4.640;2023-10-31T12:25:10;11.00;;;3.65;;
20697;SDS011;10508;50.956;4.640;2023-10-31T12:30:13;11.10;;;3.88;;
20697;SDS011;10508;50.956;4.640;2023-10-31T12:32:40;10.48;;;3.42;;
20697;SDS011;10508;50.956;4.640;2023-10-31T12:35:07;7.60;;;3.65;;
20697;SDS011;10508;50.956;4.640;2023-10-31T12:37:40;11.20;;;3.50;;
20697;SDS011;10508;50.956;4.640;2023-10-31T12:40:10;13.68;;;3.45;;
20697;SDS011;10508;50.956;4.640;2023-10-31T12:42:40;5.85;;;2.97;;
20697;SDS011;10508;50.956;4.640;2023-10-31T12:45:06;5.95;;;2.95;;
20697;SDS011;10508;50.956;4.640;2023-10-31T12:47:33;6.65;;;2.80;;
20697;SDS011;10508;50.956;4.640;2023-10-31T12:50:33;5.18;;;3.10;;
20697;SDS011;10508;50.956;4.640;2023-10-31T12:52:52;5.88;;;3.25;;
20697;SDS011;10508;50.956;4.640;2023-10-31T12:55:22;6.43;;;2.85;;
20697;SDS011;10508;50.956;4.640;2023-10-31T12:57:52;7.07;;;3.03;;
20697;SDS011;10508;50.956;4.640;2023-10-31T13:00:19;4.85;;;2.40;;
20697;SDS011;10508;50.956;4.640;2023-10-31T13:03:00;6.68;;;2.67;;
20697;SDS011;10508;50.956;4.640;2023-10-31T13:05:27;7.47;;;2.22;;
20697;SDS011;10508;50.956;4.640;2023-10-31T13:07:54;6.85;;;2.20;;
20697;SDS011;10508;50.956;4.640;2023-10-31T13:10:24;5.78;;;2.30;;
20697;SDS011;10508;50.956;4.640;2023-10-31T13:12:51;3.63;;;2.05;;
20697;SDS011;10508;50.956;4.640;2023-10-31T13:15:18;4.13;;;2.10;;
20697;SDS011;10508;50.956;4.640;2023-10-31T13:17:45;7.35;;;2.17;;
20697;SDS011;10508;50.956;4.640;2023-10-31T13:20:12;4.82;;;2.38;;
20697;SDS011;10508;50.956;4.640;2023-10-31T13:22:39;3.83;;;2.25;;
20697;SDS011;10508;50.956;4.640;2023-10-31T13:25:06;8.38;;;2.47;;
20697;SDS011;10508;50.956;4.640;2023-10-31T13:27:35;8.52;;;2.60;;
20697;SDS011;10508;50.956;4.640;2023-10-31T13:30:05;7.45;;;2.72;;
20697;SDS011;10508;50.956;4.640;2023-10-31T13:32:32;5.85;;;2.17;;
20697;SDS011;10508;50.956;4.640;2023-10-31T13:34:58;6.47;;;2.45;;
20697;SDS011;10508;50.956;4.640;2023-10-31T13:37:24;7.55;;;2.60;;
20697;SDS011;10508;50.956;4.640;2023-10-31T13:39:50;5.68;;;2.40;;
20697;SDS011;10508;50.956;4.640;2023-10-31T13:42:16;2.30;;;1.92;;
20697;SDS011;10508;50.956;4.640;2023-10-31T13:44:43;5.32;;;2.30;;
20697;SDS011;10508;50.956;4.640;2023-10-31T13:47:09;4.25;;;2.13;;
20697;SDS011;10508;50.956;4.640;2023-10-31T13:49:36;2.75;;;1.77;;
20697;SDS011;10508;50.956;4.640;2023-10-31T13:52:05;7.53;;;2.15;;
20697;SDS011;10508;50.956;4.640;2023-10-31T13:54:31;3.97;;;2.42;;
20697;SDS011;10508;50.956;4.640;2023-10-31T13:56:57;3.00;;;2.00;;
20697;SDS011;10508;50.956;4.640;2023-10-31T13:59:23;3.63;;;1.95;;
20697;SDS011;10508;50.956;4.640;2023-10-31T14:01:50;6.35;;;1.77;;
20697;SDS011;10508;50.956;4.640;2023-10-31T14:04:17;3.45;;;1.65;;
20697;SDS011;10508;50.956;4.640;2023-10-31T14:06:43;4.50;;;2.08;;
20697;SDS011;10508;50.956;4.640;2023-10-31T14:09:10;2.53;;;1.38;;
20697;SDS011;10508;50.956;4.640;2023-10-31T14:11:37;8.45;;;2.00;;
20697;SDS011;10508;50.956;4.640;2023-10-31T14:14:03;4.53;;;1.98;;
20697;SDS011;10508;50.956;4.640;2023-10-31T14:16:35;3.65;;;2.10;;
20697;SDS011;10508;50.956;4.640;2023-10-31T14:19:02;3.55;;;2.17;;
20697;SDS011;10508;50.956;4.640;2023-10-31T14:21:28;10.23;;;3.42;;
20697;SDS011;10508;50.956;4.640;2023-10-31T14:23:54;6.28;;;2.97;;
20697;SDS011;10508;50.956;4.640;2023-10-31T14:26:20;9.35;;;3.45;;
20697;SDS011;10508;50.956;4.640;2023-10-31T14:28:47;6.40;;;3.20;;
20697;SDS011;10508;50.956;4.640;2023-10-31T14:31:16;8.02;;;3.58;;
20697;SDS011;10508;50.956;4.640;2023-10-31T14:33:42;6.43;;;3.47;;
20697;SDS011;10508;50.956;4.640;2023-10-31T14:36:08;6.47;;;3.65;;
20697;SDS011;10508;50.956;4.640;2023-10-31T14:38:37;7.10;;;3.78;;
20697;SDS011;10508;50.956;4.640;2023-10-31T14:41:03;8.80;;;4.00;;
20697;SDS011;10508;50.956;4.640;2023-10-31T14:43:29;6.55;;;3.85;;
20697;SDS011;10508;50.956;4.640;2023-10-31T14:45:55;12.50;;;4.25;;
20697;SDS011;10508;50.956;4.640;2023-10-31T14:48:21;7.95;;;3.63;;
20697;SDS011;10508;50.956;4.640;2023-10-31T14:50:49;8.85;;;4.32;;